Time;durP1;ratioP1;P1;durP2;ratioP2;P2;SDS_P1;SDS_P2;PMS_P1;PMS_P2;Temp;Humidity;BMP_temperature;BMP_pressure;BME280_temperature;BME280_humidity;BME280_pressure;Samples;Min_cycle;Max_cycle;Signal;HPM_P1;HPM_P2
2021/11/10 00:00:10;;;;;;;21.75;10.77;;;;;;;-0.40;100.00;100266.38;5043003;28;20025;-60
2021/11/10 00:02:36;;;;;;;32.72;15.18;;;;;;;-0.52;100.00;100268.34;5042133;28;20053;-60
2021/11/10 00:05:02;;;;;;;42.33;19.10;;;;;;;-0.52;100.00;100267.53;5032485;28;20021;-59
2021/11/10 00:07:27;;;;;;;59.92;24.13;;;;;;;-0.51;100.00;100271.81;5040121;28;20029;-60
2021/11/10 00:09:53;;;;;;;29.25;14.13;;;;;;;-0.18;100.00;100280.94;5041935;28;20159;-60
2021/11/10 00:12:18;;;;;;;20.33;8.30;;;;;;;0.04;100.00;100276.25;5041716;28;20041;-60
2021/11/10 00:14:44;;;;;;;17.10;8.65;;;;;;;0.04;100.00;100268.34;5040068;28;20052;-60
2021/11/10 00:17:09;;;;;;;17.63;8.70;;;;;;;0.06;100.00;100267.22;5022005;28;20053;-60
2021/11/10 00:19:34;;;;;;;19.63;9.85;;;;;;;-0.10;100.00;100269.66;5022753;28;20029;-60
2021/11/10 00:22:00;;;;;;;26.80;10.65;;;;;;;-0.14;100.00;100268.31;5019787;28;20177;-60
2021/11/10 00:24:25;;;;;;;18.52;9.40;;;;;;;-0.06;100.00;100271.03;5020901;28;20033;-60
2021/11/10 00:26:51;;;;;;;23.77;11.80;;;;;;;-0.04;100.00;100266.44;5020659;28;20041;-61
2021/11/10 00:29:16;;;;;;;24.95;11.48;;;;;;;-0.27;100.00;100264.22;5022313;28;20033;-61
2021/11/10 00:31:42;;;;;;;22.83;10.73;;;;;;;-0.26;100.00;100267.69;5021903;28;20045;-60
2021/11/10 00:34:07;;;;;;;26.70;11.80;;;;;;;-0.34;100.00;100260.50;5022337;28;20528;-61
2021/11/10 00:36:32;;;;;;;22.42;11.25;;;;;;;-0.37;100.00;100260.81;5021512;28;20119;-60
2021/11/10 00:38:58;;;;;;;29.52;10.38;;;;;;;-0.36;100.00;100265.09;5022203;28;20029;-60
2021/11/10 00:41:24;;;;;;;20.33;9.98;;;;;;;-0.19;100.00;100252.13;5021564;28;20654;-60
2021/11/10 00:43:49;;;;;;;23.35;10.77;;;;;;;-0.26;100.00;100244.78;5019469;28;20025;-60
2021/11/10 00:46:15;;;;;;;20.48;11.55;;;;;;;-0.44;100.00;100244.75;5035345;28;20045;-60
2021/11/10 00:48:40;;;;;;;26.33;10.85;;;;;;;-0.62;100.00;100243.03;5042189;28;20543;-61
2021/11/10 00:51:06;;;;;;;21.33;10.32;;;;;;;-0.70;100.00;100249.88;5040540;28;20056;-61
2021/11/10 00:53:31;;;;;;;33.00;15.57;;;;;;;-0.70;100.00;100255.13;5037317;28;20041;-60
2021/11/10 00:55:56;;;;;;;26.20;12.02;;;;;;;-0.78;100.00;100252.38;5026975;28;20073;-60
2021/11/10 00:58:22;;;;;;;28.05;13.48;;;;;;;-1.03;100.00;100247.75;5021002;28;20042;-60
2021/11/10 01:00:47;;;;;;;31.58;13.38;;;;;;;-0.31;100.00;100249.66;5025286;28;20088;-60
2021/11/10 01:03:13;;;;;;;63.78;21.65;;;;;;;-0.22;100.00;100246.16;5028473;28;20041;-60
2021/11/10 01:05:39;;;;;;;44.67;17.85;;;;;;;-0.76;100.00;100250.44;5022064;28;20321;-60
2021/11/10 01:08:05;;;;;;;48.92;17.92;;;;;;;-0.32;100.00;100253.28;5018835;28;20081;-60
2021/11/10 01:10:31;;;;;;;31.10;12.45;;;;;;;0.18;100.00;100242.28;5019547;28;20128;-60
2021/11/10 01:12:56;;;;;;;34.20;13.88;;;;;;;-0.06;100.00;100247.31;5025885;28;20072;-61
2021/11/10 01:15:22;;;;;;;37.42;13.35;;;;;;;-0.13;100.00;100251.50;5025605;28;20045;-60
2021/11/10 01:17:47;;;;;;;35.35;13.50;;;;;;;0.35;100.00;100245.06;5025610;28;20026;-61
2021/11/10 01:20:13;;;;;;;25.52;12.07;;;;;;;-0.03;100.00;100239.91;5024550;28;20099;-60
2021/11/10 01:22:38;;;;;;;20.10;10.98;;;;;;;-0.29;100.00;100239.00;5025460;28;20060;-60
2021/11/10 01:25:06;;;;;;;27.10;11.07;;;;;;;-0.58;100.00;100244.41;5011835;28;20107;-60
2021/11/10 01:27:31;;;;;;;28.27;12.15;;;;;;;-0.69;100.00;100238.34;5024236;28;20032;-60
2021/11/10 01:29:56;;;;;;;24.23;10.40;;;;;;;-0.90;100.00;100248.25;5024017;28;20026;-60
2021/11/10 01:32:22;;;;;;;27.60;11.75;;;;;;;-0.81;100.00;100257.94;5022712;28;20037;-60
2021/11/10 01:34:47;;;;;;;24.92;11.43;;;;;;;-0.99;100.00;100249.13;5022744;28;20103;-61
2021/11/10 01:37:13;;;;;;;22.52;12.18;;;;;;;-0.99;100.00;100243.88;5022104;28;20045;-60
2021/11/10 01:39:39;;;;;;;23.85;11.40;;;;;;;-1.08;100.00;100245.53;5024684;28;20113;-61
2021/11/10 01:42:05;;;;;;;27.73;11.25;;;;;;;-1.27;100.00;100241.16;5023748;28;20060;-60
2021/11/10 01:44:32;;;;;;;22.15;9.45;;;;;;;-0.94;100.00;100241.63;5019848;28;20137;-60
2021/11/10 01:46:59;;;;;;;22.65;9.85;;;;;;;-0.87;100.00;100248.00;5016521;28;20077;-62
2021/11/10 01:49:24;;;;;;;26.80;12.05;;;;;;;-0.98;100.00;100258.66;5023710;28;20424;-60
2021/11/10 01:51:51;;;;;;;21.35;10.93;;;;;;;-1.14;100.00;100249.56;5024789;28;20145;-61
2021/11/10 01:54:18;;;;;;;21.55;10.85;;;;;;;-1.18;100.00;100239.47;5023973;28;20184;-61
2021/11/10 01:56:43;;;;;;;27.83;11.60;;;;;;;-1.15;100.00;100237.41;5024661;28;20522;-61
2021/11/10 01:59:09;;;;;;;25.98;12.45;;;;;;;-1.05;100.00;100247.06;5022005;28;20034;-61
2021/11/10 02:01:44;;;;;;;22.10;10.80;;;;;;;-1.08;100.00;100246.34;5019976;28;20080;-61
2021/11/10 02:04:10;;;;;;;25.02;11.55;;;;;;;-1.14;100.00;100249.56;5024670;28;20124;-61
2021/11/10 02:06:36;;;;;;;27.60;12.95;;;;;;;-1.34;100.00;100242.69;5019059;28;20589;-61
2021/11/10 02:09:02;;;;;;;24.40;10.93;;;;;;;-1.41;100.00;100249.47;5024218;28;20037;-61
2021/11/10 02:11:28;;;;;;;26.25;11.38;;;;;;;-0.88;100.00;100254.22;5034657;28;20045;-61
2021/11/10 02:13:53;;;;;;;26.02;11.88;;;;;;;-0.79;100.00;100257.78;5043517;28;20387;-61
2021/11/10 02:16:19;;;;;;;33.78;12.25;;;;;;;-0.84;100.00;100257.41;5032008;28;20084;-61
2021/11/10 02:18:44;;;;;;;32.63;12.18;;;;;;;-1.10;100.00;100253.59;5022861;28;20071;-61
2021/11/10 02:21:11;;;;;;;26.23;11.30;;;;;;;-0.87;100.00;100250.63;5023619;28;20480;-61
2021/11/10 02:23:36;;;;;;;29.90;14.23;;;;;;;-0.92;100.00;100245.78;5023847;28;20042;-61
2021/11/10 02:26:05;;;;;;;28.60;13.88;;;;;;;-1.01;100.00;100235.28;5023850;28;20060;-61
2021/11/10 02:28:30;;;;;;;27.63;13.05;;;;;;;-1.06;100.00;100237.50;5023236;28;20068;-61
2021/11/10 02:30:56;;;;;;;25.83;12.38;;;;;;;-0.59;100.00;100245.38;5019347;28;20496;-61
2021/11/10 02:33:27;;;;;;;31.50;15.00;;;;;;;-0.72;100.00;100240.47;5019722;28;20033;-61
2021/11/10 02:36:01;;;;;;;25.08;13.93;;;;;;;-0.78;100.00;100233.94;5022685;28;20053;-61
2021/11/10 02:38:26;;;;;;;31.27;14.23;;;;;;;-0.65;100.00;100238.88;5024490;28;20464;-61
2021/11/10 02:40:53;;;;;;;29.52;14.25;;;;;;;-0.89;100.00;100236.78;5023200;28;20059;-61
2021/11/10 02:43:18;;;;;;;34.45;13.55;;;;;;;-1.12;100.00;100234.47;4999528;28;20059;-61
2021/11/10 02:45:43;;;;;;;28.52;15.30;;;;;;;-0.91;100.00;100230.81;5020381;28;20480;-61
2021/11/10 02:48:09;;;;;;;28.90;14.82;;;;;;;-0.82;100.00;100232.59;5020145;28;20545;-61
2021/11/10 02:50:34;;;;;;;30.65;17.42;;;;;;;-0.74;100.00;100231.88;5023491;28;20044;-61
2021/11/10 02:53:00;;;;;;;28.27;14.88;;;;;;;-0.88;100.00;100235.78;5023268;28;20499;-61
2021/11/10 02:55:26;;;;;;;33.05;15.68;;;;;;;-1.01;100.00;100230.00;5022437;28;20766;-61
2021/11/10 02:57:53;;;;;;;28.63;15.25;;;;;;;-1.08;100.00;100225.31;5023120;28;20080;-61
2021/11/10 03:00:18;;;;;;;35.90;16.60;;;;;;;-0.94;100.00;100215.31;5022894;28;20030;-61
2021/11/10 03:02:44;;;;;;;28.60;15.38;;;;;;;-1.05;100.00;100203.13;5022026;28;20049;-61
2021/11/10 03:05:09;;;;;;;25.35;13.68;;;;;;;-0.96;100.00;100212.00;5017760;28;20033;-61
2021/11/10 03:07:35;;;;;;;22.60;12.80;;;;;;;-0.74;100.00;100210.81;5035800;28;20118;-61
2021/11/10 03:10:00;;;;;;;35.15;16.42;;;;;;;-0.43;100.00;100219.22;5043640;28;20025;-61
2021/11/10 03:12:26;;;;;;;24.23;15.18;;;;;;;-0.64;100.00;100216.03;5023540;28;20049;-61
2021/11/10 03:14:51;;;;;;;27.15;13.02;;;;;;;-0.99;100.00;100215.75;5022524;28;20077;-61
2021/11/10 03:17:17;;;;;;;24.30;13.50;;;;;;;-1.20;100.00;100204.56;5022834;28;20048;-61
2021/11/10 03:19:43;;;;;;;32.13;16.23;;;;;;;-0.95;100.00;100203.13;5023484;28;20500;-61
2021/11/10 03:22:10;;;;;;;34.53;17.02;;;;;;;-0.95;100.00;100203.13;5021698;28;20376;-61
2021/11/10 03:24:36;;;;;;;26.33;15.57;;;;;;;-1.16;100.00;100211.22;5022129;28;20037;-61
2021/11/10 03:27:01;;;;;;;24.63;14.18;;;;;;;-1.37;100.00;100211.41;5018993;28;20365;-61
2021/11/10 03:29:27;;;;;;;26.35;13.90;;;;;;;-1.58;100.00;100207.13;5023483;28;20096;-61
2021/11/10 03:31:52;;;;;;;27.58;13.95;;;;;;;-1.19;100.00;100220.22;5018899;28;20406;-61
2021/11/10 03:34:19;;;;;;;25.10;13.70;;;;;;;-1.49;100.00;100215.19;5021073;28;20033;-61
2021/11/10 03:36:45;;;;;;;26.63;12.50;;;;;;;-1.57;100.00;100203.56;5031353;28;20095;-61
2021/11/10 03:39:12;;;;;;;21.10;11.02;;;;;;;-1.99;100.00;100188.06;5033759;28;20500;-61
2021/11/10 03:41:38;;;;;;;26.08;11.63;;;;;;;-2.21;100.00;100188.34;5029288;28;20072;-61
2021/11/10 03:44:04;;;;;;;22.75;12.20;;;;;;;-2.08;100.00;100196.78;5023552;28;20041;-61
2021/11/10 03:46:29;;;;;;;28.75;13.25;;;;;;;-2.07;100.00;100195.81;5021420;28;20049;-61
2021/11/10 03:48:55;;;;;;;31.98;15.30;;;;;;;-1.93;100.00;100191.13;5014880;28;20037;-61
2021/11/10 03:51:20;;;;;;;24.75;13.80;;;;;;;-1.80;100.00;100170.63;5016698;28;20049;-61
2021/11/10 03:53:46;;;;;;;29.35;14.20;;;;;;;-1.97;100.00;100172.19;5013291;28;20040;-61
2021/11/10 03:56:11;;;;;;;25.52;13.50;;;;;;;-1.94;100.00;100173.69;5022059;28;20188;-61
2021/11/10 03:58:37;;;;;;;31.08;13.88;;;;;;;-2.10;100.00;100182.94;5022071;28;20033;-61
2021/11/10 04:01:02;;;;;;;29.20;14.23;;;;;;;-1.29;100.00;100185.22;5018373;28;20099;-60
2021/11/10 04:03:28;;;;;;;37.03;17.20;;;;;;;-1.58;100.00;100175.59;5015571;28;20049;-60
2021/11/10 04:05:53;;;;;;;38.50;15.52;;;;;;;-1.59;100.00;100181.81;5020224;28;20411;-60
2021/11/10 04:08:19;;;;;;;47.75;17.50;;;;;;;-1.49;100.00;100183.63;5021178;28;20586;-60
2021/11/10 04:10:45;;;;;;;35.08;14.88;;;;;;;-1.33;100.00;100175.97;5022628;28;20048;-60
2021/11/10 04:13:10;;;;;;;52.13;16.13;;;;;;;-1.17;100.00;100184.09;5021698;28;20025;-60
2021/11/10 04:15:35;;;;;;;66.45;18.50;;;;;;;-1.30;100.00;100204.59;5021191;28;20301;-60
2021/11/10 04:18:01;;;;;;;183.70;19.52;;;;;;;-1.11;100.00;100191.41;5017381;28;20149;-60
2021/11/10 04:20:26;;;;;;;137.63;21.23;;;;;;;-1.29;100.00;100179.97;5019222;28;20049;-60
2021/11/10 04:22:52;;;;;;;52.83;18.25;;;;;;;-1.53;100.00;100162.03;5019187;28;20037;-59
2021/11/10 04:25:17;;;;;;;46.67;17.88;;;;;;;-1.47;100.00;100150.09;5016751;28;20751;-59
2021/11/10 04:27:43;;;;;;;37.97;16.08;;;;;;;-1.77;100.00;100155.44;5022367;28;20068;-61
2021/11/10 04:30:11;;;;;;;42.05;14.80;;;;;;;-2.10;100.00;100164.53;5022049;28;20453;-61
2021/11/10 04:32:36;;;;;;;39.75;16.30;;;;;;;-2.05;100.00;100162.34;5017381;28;20029;-61
2021/11/10 04:35:03;;;;;;;55.08;15.70;;;;;;;-1.74;100.00;100162.19;5015845;28;20029;-59
2021/11/10 04:37:28;;;;;;;42.53;17.25;;;;;;;-1.59;100.00;100168.69;5023323;28;20025;-62
2021/11/10 04:39:54;;;;;;;51.65;18.70;;;;;;;-1.82;100.00;100160.28;5024465;28;20059;-61
2021/11/10 04:42:19;;;;;;;41.47;16.52;;;;;;;-1.80;100.00;100170.63;5022051;28;20033;-62
2021/11/10 04:44:49;;;;;;;70.03;15.90;;;;;;;-1.94;100.00;100168.44;5023037;28;20037;-62
2021/11/10 04:47:15;;;;;;;43.28;14.25;;;;;;;-2.03;100.00;100173.53;5026379;28;20041;-64
2021/11/10 04:49:40;;;;;;;46.63;15.77;;;;;;;-1.99;100.00;100179.38;5025907;28;20284;-62
2021/11/10 04:52:06;;;;;;;49.53;14.75;;;;;;;-2.01;100.00;100183.94;5024324;28;20476;-62
2021/11/10 04:54:31;;;;;;;52.30;14.73;;;;;;;-2.10;100.00;100180.31;5023679;28;20030;-62
2021/11/10 04:56:58;;;;;;;50.75;13.27;;;;;;;-2.06;100.00;100179.09;5040968;28;20045;-62
2021/11/10 04:59:23;;;;;;;46.60;12.35;;;;;;;-2.00;100.00;100175.06;5046029;28;20025;-62
2021/11/10 05:04:33;;;;;;;69.38;13.95;;;;;;;-2.04;100.00;100169.28;5025806;28;20466;-62
2021/11/10 05:06:59;;;;;;;62.40;14.52;;;;;;;-1.83;100.00;100171.75;5025043;28;20415;-62
2021/11/10 05:09:24;;;;;;;91.82;12.77;;;;;;;-1.92;100.00;100164.72;5024382;28;20102;-61
2021/11/10 05:11:49;;;;;;;100.45;15.18;;;;;;;-1.90;100.00;100159.28;5025925;28;20064;-62
2021/11/10 05:14:15;;;;;;;103.82;12.35;;;;;;;-2.04;100.00;100156.13;5021382;28;20049;-61
2021/11/10 05:16:40;;;;;;;123.07;13.57;;;;;;;-2.06;100.00;100144.94;5022535;28;20037;-62
2021/11/10 05:19:06;;;;;;;211.38;15.68;;;;;;;-2.04;100.00;100142.19;5021328;28;20033;-62
2021/11/10 05:21:31;;;;;;;204.27;14.82;;;;;;;-2.13;100.00;100141.19;5024669;28;20041;-61
2021/11/10 05:23:57;;;;;;;78.70;11.77;;;;;;;-1.97;100.00;100138.84;5024864;28;20373;-62
2021/11/10 05:26:22;;;;;;;141.35;13.07;;;;;;;-2.13;100.00;100135.13;5036293;28;20049;-61
2021/11/10 05:28:47;;;;;;;99.05;13.13;;;;;;;-2.03;100.00;100133.31;5043539;28;20032;-62
2021/11/10 05:31:13;;;;;;;83.65;14.18;;;;;;;-2.02;100.00;100127.94;5045511;28;20037;-61
2021/11/10 05:33:39;;;;;;;95.38;13.73;;;;;;;-2.05;100.00;100130.81;5045907;28;20037;-61
2021/11/10 05:36:04;;;;;;;80.93;13.13;;;;;;;-2.02;100.00;100135.81;5036337;28;20056;-61
2021/11/10 05:38:30;;;;;;;160.93;14.02;;;;;;;-2.15;100.00;100137.88;5024147;28;20064;-62
2021/11/10 05:40:55;;;;;;;111.57;13.18;;;;;;;-2.24;100.00;100143.97;5017521;28;20168;-61
2021/11/10 05:43:20;;;;;;;132.55;14.25;;;;;;;-2.22;100.00;100149.88;5025107;28;20079;-61
2021/11/10 05:45:46;;;;;;;134.45;12.80;;;;;;;-2.27;100.00;100141.59;5022332;28;20073;-60
2021/11/10 05:48:12;;;;;;;106.65;13.55;;;;;;;-2.45;100.00;100139.63;5025396;28;20575;-60
2021/11/10 05:50:37;;;;;;;91.55;12.82;;;;;;;-2.56;100.00;100147.66;5022452;28;20037;-61
2021/11/10 05:53:03;;;;;;;142.95;13.63;;;;;;;-2.70;100.00;100148.03;5019912;28;20050;-60
2021/11/10 05:55:29;;;;;;;81.45;11.63;;;;;;;-2.64;100.00;100150.94;5024213;28;20054;-60
2021/11/10 05:57:54;;;;;;;65.90;12.40;;;;;;;-2.76;100.00;100153.81;5024881;28;20037;-61
2021/11/10 06:00:20;;;;;;;30.63;11.38;;;;;;;-2.66;100.00;100149.44;5024988;28;20088;-62
2021/11/10 06:02:45;;;;;;;38.63;12.60;;;;;;;-2.53;100.00;100147.38;5024865;28;20044;-62
2021/11/10 06:05:16;;;;;;;26.52;11.60;;;;;;;-2.61;100.00;100149.84;5024289;28;20103;-62
2021/11/10 06:07:42;;;;;;;27.80;11.23;;;;;;;-2.26;100.00;100165.09;5022459;28;20628;-60
2021/11/10 06:10:07;;;;;;;27.17;12.95;;;;;;;-2.25;100.00;100165.94;5024446;28;20048;-59
2021/11/10 06:12:33;;;;;;;21.33;12.45;;;;;;;-2.30;100.00;100168.13;5024408;28;20034;-62
2021/11/10 06:14:58;;;;;;;25.35;13.25;;;;;;;-2.31;100.00;100169.94;5024526;28;20026;-61
2021/11/10 06:17:23;;;;;;;21.73;12.38;;;;;;;-2.20;100.00;100168.97;5041505;28;20073;-62
2021/11/10 06:19:49;;;;;;;26.73;13.25;;;;;;;-2.25;100.00;100171.19;5043249;28;20127;-62
2021/11/10 06:22:14;;;;;;;24.45;13.18;;;;;;;-2.39;100.00;100162.75;5021014;28;20041;-62
2021/11/10 06:24:40;;;;;;;26.80;13.50;;;;;;;-2.44;100.00;100162.31;5017465;28;20033;-60
2021/11/10 06:27:06;;;;;;;22.88;13.50;;;;;;;-2.45;100.00;100170.31;5022571;28;20045;-60
2021/11/10 06:29:31;;;;;;;26.50;14.07;;;;;;;-2.46;100.00;100164.25;5024191;28;20041;-62
2021/11/10 06:31:56;;;;;;;24.30;13.02;;;;;;;-2.36;100.00;100176.56;5022417;28;20099;-62
2021/11/10 06:34:22;;;;;;;30.17;12.55;;;;;;;-2.37;100.00;100186.25;5023102;28;20037;-61
2021/11/10 06:36:47;;;;;;;19.88;12.02;;;;;;;-2.23;100.00;100180.59;5029446;28;20368;-60
2021/11/10 06:39:13;;;;;;;25.75;13.05;;;;;;;-2.25;100.00;100186.94;5040932;28;20022;-62
2021/11/10 06:41:38;;;;;;;22.00;12.30;;;;;;;-2.17;100.00;100184.47;5030720;28;20041;-62
2021/11/10 06:44:10;;;;;;;25.20;11.80;;;;;;;-2.07;100.00;100168.69;5024244;28;20532;-63
2021/11/10 06:46:35;;;;;;;19.77;11.73;;;;;;;-2.18;100.00;100188.06;5022102;28;20045;-60
2021/11/10 06:49:01;;;;;;;21.13;11.55;;;;;;;-2.34;100.00;100178.09;5023344;28;20029;-62
2021/11/10 06:51:27;;;;;;;19.13;10.95;;;;;;;-2.21;100.00;100183.09;5035300;28;20564;-61
2021/11/10 06:53:52;;;;;;;17.83;10.73;;;;;;;-2.25;100.00;100186.94;5023337;28;20041;-61
2021/11/10 06:56:18;;;;;;;19.60;10.95;;;;;;;-2.22;100.00;100181.41;5023262;28;20487;-60
2021/11/10 06:58:46;;;;;;;16.10;9.68;;;;;;;-2.21;100.00;100183.09;5020774;28;20329;-61
2021/11/10 07:01:14;;;;;;;18.20;10.95;;;;;;;-2.13;100.00;100191.09;5006029;28;20810;-60
2021/11/10 07:03:40;;;;;;;18.38;10.85;;;;;;;-2.09;100.00;100189.03;5023808;28;20099;-61
2021/11/10 07:06:06;;;;;;;19.30;10.88;;;;;;;-1.99;100.00;100200.38;5023613;28;20042;-60
2021/11/10 07:08:31;;;;;;;17.00;10.38;;;;;;;-2.19;100.00;100202.16;5024191;28;20294;-63
2021/11/10 07:10:56;;;;;;;17.48;10.38;;;;;;;-2.02;100.00;100204.13;5023786;28;20554;-61
2021/11/10 07:13:22;;;;;;;32.88;16.50;;;;;;;-1.59;100.00;100207.28;5024281;28;20422;-61
2021/11/10 07:15:48;;;;;;;27.08;14.65;;;;;;;-1.65;100.00;100216.53;5023621;28;20052;-61
2021/11/10 07:18:13;;;;;;;25.35;14.82;;;;;;;-1.44;100.00;100216.41;5021815;28;20034;-61
2021/11/10 07:20:39;;;;;;;18.75;11.57;;;;;;;-1.29;100.00;100215.97;5017816;28;20068;-61
2021/11/10 07:23:04;;;;;;;18.35;10.52;;;;;;;-1.07;100.00;100220.91;5023883;28;20033;-61
2021/11/10 07:25:30;;;;;;;17.58;9.20;;;;;;;-1.17;98.49;100209.56;5022075;28;20482;-61
2021/11/10 07:27:55;;;;;;;15.52;8.70;;;;;;;-1.03;98.07;100210.91;5023327;28;20038;-61
2021/11/10 07:30:21;;;;;;;14.15;7.90;;;;;;;-0.85;96.73;100224.13;5019355;28;20054;-61
2021/11/10 07:32:47;;;;;;;13.88;8.10;;;;;;;-0.52;94.78;100233.31;5021450;28;20589;-61
2021/11/10 07:35:12;;;;;;;17.55;8.55;;;;;;;-0.15;93.69;100235.00;5021502;28;20061;-61
2021/11/10 07:37:38;;;;;;;12.85;7.75;;;;;;;0.34;89.96;100227.59;5022024;28;20586;-61
2021/11/10 07:40:04;;;;;;;15.82;8.88;;;;;;;0.40;89.15;100238.38;5021691;28;20021;-60
2021/11/10 07:42:31;;;;;;;12.30;7.63;;;;;;;0.32;89.35;100229.53;5022363;28;20099;-61
2021/11/10 07:45:05;;;;;;;13.10;7.80;;;;;;;0.36;88.67;100238.81;5022405;28;20045;-61
2021/11/10 07:47:39;;;;;;;14.65;8.32;;;;;;;0.66;88.60;100234.94;5020293;28;20059;-61
2021/11/10 07:50:04;;;;;;;13.32;7.22;;;;;;;0.21;88.54;100228.78;5000865;28;20042;-61
2021/11/10 07:52:30;;;;;;;11.63;7.53;;;;;;;0.10;89.04;100226.41;5023621;28;20064;-61
2021/11/10 07:54:55;;;;;;;12.80;8.10;;;;;;;0.72;86.85;100233.50;5021749;28;20222;-61
2021/11/10 07:57:21;;;;;;;13.43;8.40;;;;;;;0.91;87.80;100225.38;5022823;28;20479;-61
2021/11/10 07:59:46;;;;;;;13.95;7.70;;;;;;;0.88;85.29;100223.06;5022657;28;20040;-61
2021/11/10 08:02:12;;;;;;;18.05;8.13;;;;;;;0.58;85.31;100225.16;5021851;28;20052;-61
2021/11/10 08:04:37;;;;;;;14.13;7.70;;;;;;;0.12;88.44;100213.88;5021251;28;20044;-61
2021/11/10 08:07:02;;;;;;;16.95;9.25;;;;;;;0.34;88.53;100211.75;5020719;28;20067;-61
2021/11/10 08:09:28;;;;;;;28.70;15.13;;;;;;;0.37;86.91;100203.53;5020796;28;20444;-61
2021/11/10 08:11:53;;;;;;;21.98;12.10;;;;;;;0.86;86.04;100204.72;5020451;28;20045;-61
2021/11/10 08:14:19;;;;;;;22.20;12.68;;;;;;;0.99;86.12;100214.03;5021389;28;20538;-62
2021/11/10 08:16:45;;;;;;;26.17;13.57;;;;;;;0.94;85.74;100209.22;5021113;28;20042;-61
2021/11/10 08:19:11;;;;;;;21.77;14.38;;;;;;;0.26;88.22;100224.88;5022335;28;20372;-61
2021/11/10 08:21:36;;;;;;;23.83;14.15;;;;;;;1.11;89.25;100227.81;5022407;28;20076;-61
2021/11/10 08:24:04;;;;;;;22.00;13.63;;;;;;;0.87;86.71;100226.66;5011677;28;20507;-61
2021/11/10 08:26:29;;;;;;;18.88;9.77;;;;;;;1.09;86.79;100222.66;5020368;28;20053;-61
2021/11/10 08:28:55;;;;;;;20.23;10.23;;;;;;;1.40;85.00;100224.78;5021363;28;20036;-61
2021/11/10 08:31:20;;;;;;;16.58;9.52;;;;;;;1.97;82.16;100224.16;5017873;28;20558;-61
2021/11/10 08:33:46;;;;;;;20.13;9.82;;;;;;;2.11;81.29;100215.59;5019580;28;20045;-61
2021/11/10 08:36:11;;;;;;;19.63;10.48;;;;;;;2.05;80.55;100224.19;5020623;28;20049;-62
2021/11/10 08:38:37;;;;;;;26.00;11.50;;;;;;;1.65;80.97;100223.94;5020060;28;20033;-61
2021/11/10 08:41:02;;;;;;;20.00;12.13;;;;;;;1.89;82.54;100231.06;5018777;28;20050;-61
2021/11/10 08:43:28;;;;;;;18.40;9.93;;;;;;;1.87;80.72;100226.94;5022904;28;20034;-62
2021/11/10 08:45:54;;;;;;;28.83;13.85;;;;;;;1.84;82.34;100235.19;5020879;28;20041;-61
2021/11/10 08:48:21;;;;;;;26.30;13.85;;;;;;;1.77;82.49;100240.28;5021516;28;20030;-61
2021/11/10 08:50:47;;;;;;;25.83;12.23;;;;;;;1.64;83.72;100232.00;5017600;28;20041;-62
2021/11/10 08:53:18;;;;;;;16.80;10.18;;;;;;;2.25;81.86;100235.31;5019796;28;20309;-61
2021/11/10 08:55:44;;;;;;;18.63;9.98;;;;;;;2.38;80.45;100244.38;5023455;28;20758;-64
2021/11/10 08:58:09;;;;;;;14.05;9.02;;;;;;;2.35;81.37;100247.38;5042198;28;20028;-61
2021/11/10 09:00:35;;;;;;;18.33;10.02;;;;;;;2.70;80.17;100255.97;5039693;28;20053;-62
2021/11/10 09:03:00;;;;;;;18.77;10.20;;;;;;;3.43;77.68;100252.34;5035281;28;20049;-63
2021/11/10 09:05:26;;;;;;;21.50;9.90;;;;;;;3.70;75.41;100234.38;5035109;28;20056;-61
2021/11/10 09:07:51;;;;;;;20.48;9.95;;;;;;;3.53;76.24;100236.25;5015544;28;20064;-61
2021/11/10 09:10:17;;;;;;;19.27;10.63;;;;;;;3.56;76.30;100241.22;5018497;28;20045;-62
2021/11/10 09:12:47;;;;;;;21.75;10.55;;;;;;;3.46;78.09;100235.28;5016810;28;20375;-62
2021/11/10 09:15:13;;;;;;;21.40;11.32;;;;;;;2.87;78.93;100232.97;5018132;28;20029;-62
2021/11/10 09:17:40;;;;;;;39.80;11.32;;;;;;;2.47;80.15;100231.16;5010642;28;20036;-63
2021/11/10 09:20:08;;;;;;;20.05;11.05;;;;;;;2.81;79.67;100237.09;5021555;28;20060;-61
2021/11/10 09:22:33;;;;;;;52.88;12.02;;;;;;;2.26;80.77;100237.75;5025510;28;20034;-61
2021/11/10 09:24:58;;;;;;;42.28;11.27;;;;;;;3.18;76.65;100242.84;5025277;28;20368;-61
2021/11/10 09:27:24;;;;;;;36.75;11.80;;;;;;;2.56;80.94;100244.22;5044291;28;20196;-61
2021/11/10 09:29:50;;;;;;;24.40;12.30;;;;;;;1.95;82.95;100245.50;5044317;28;20021;-62
2021/11/10 09:32:16;;;;;;;21.75;11.90;;;;;;;1.38;85.88;100232.06;5043638;28;20041;-62
2021/11/10 09:34:41;;;;;;;22.20;11.73;;;;;;;1.14;88.51;100233.59;5044600;28;20071;-61
2021/11/10 09:37:06;;;;;;;22.90;11.95;;;;;;;0.96;87.12;100238.94;5026541;28;20042;-61
2021/11/10 09:39:32;;;;;;;21.48;11.63;;;;;;;1.03;88.98;100226.78;5025035;28;20040;-61
2021/11/10 09:41:57;;;;;;;20.92;12.18;;;;;;;0.86;89.33;100227.66;5025683;28;20080;-61
2021/11/10 09:44:24;;;;;;;28.40;11.65;;;;;;;0.73;90.23;100221.97;5025284;28;20834;-61
2021/11/10 09:46:50;;;;;;;23.20;11.15;;;;;;;0.55;90.86;100217.56;5038423;28;20052;-61
2021/11/10 09:49:15;;;;;;;27.08;12.80;;;;;;;0.64;91.09;100218.44;5040900;28;20737;-61
2021/11/10 09:51:42;;;;;;;21.13;11.55;;;;;;;0.43;91.87;100216.13;5029573;28;20026;-61
2021/11/10 09:54:09;;;;;;;27.08;12.25;;;;;;;0.72;92.68;100220.28;5002061;28;20379;-61
2021/11/10 09:56:35;;;;;;;28.33;12.88;;;;;;;0.81;91.21;100224.66;5036143;28;20041;-61
2021/11/10 09:59:00;;;;;;;21.52;12.05;;;;;;;0.70;91.04;100227.53;5041292;28;20028;-61
2021/11/10 10:01:26;;;;;;;34.58;14.93;;;;;;;0.97;90.97;100235.31;5031967;28;20065;-61
2021/11/10 10:03:52;;;;;;;23.67;12.98;;;;;;;1.00;90.87;100240.28;5018672;28;20084;-61
2021/11/10 10:06:17;;;;;;;24.75;13.25;;;;;;;0.84;91.12;100230.44;5022381;28;20041;-62
2021/11/10 10:08:43;;;;;;;28.13;12.27;;;;;;;0.83;92.24;100239.34;5039634;28;20029;-61
2021/11/10 10:11:09;;;;;;;23.13;12.50;;;;;;;0.51;93.95;100239.94;5039500;28;20048;-61
2021/11/10 10:13:35;;;;;;;28.38;13.85;;;;;;;0.92;93.37;100255.22;5038080;28;20029;-61
2021/11/10 10:16:00;;;;;;;47.70;14.07;;;;;;;0.83;93.32;100247.28;5044821;28;20102;-62
2021/11/10 10:18:27;;;;;;;53.00;13.00;;;;;;;0.95;92.30;100250.50;5027151;28;20078;-61
2021/11/10 10:21:03;;;;;;;105.30;13.52;;;;;;;0.73;92.30;100248.34;5043359;28;20037;-61
2021/11/10 10:23:31;;;;;;;45.58;12.60;;;;;;;0.54;93.91;100250.16;5038205;28;20020;-60
2021/11/10 10:26:12;;;;;;;43.28;14.30;;;;;;;0.79;94.51;100242.44;5036762;28;20030;-60
2021/11/10 10:28:39;;;;;;;40.92;12.85;;;;;;;0.78;93.41;100238.16;5016922;28;20084;-61
2021/11/10 10:31:05;;;;;;;49.03;13.10;;;;;;;0.91;91.79;100238.56;5018874;28;20060;-61
2021/11/10 10:33:34;;;;;;;28.48;13.10;;;;;;;1.14;92.24;100238.06;5022210;28;20029;-61
2021/11/10 10:36:03;;;;;;;21.90;13.18;;;;;;;1.38;91.99;100238.19;5016703;28;20054;-61
2021/11/10 10:38:35;;;;;;;25.55;13.40;;;;;;;1.55;91.13;100241.72;5023040;28;20033;-61
2021/11/10 10:41:01;;;;;;;28.80;15.00;;;;;;;1.83;89.52;100237.03;5018883;28;20103;-61
2021/11/10 10:43:27;;;;;;;27.15;14.60;;;;;;;2.17;88.95;100228.16;5021081;28;20033;-61
2021/11/10 10:45:54;;;;;;;27.23;13.57;;;;;;;2.38;86.71;100233.81;5017942;28;20064;-62
2021/11/10 10:48:29;;;;;;;23.58;13.35;;;;;;;2.34;87.03;100224.53;5019405;28;20472;-62
2021/11/10 10:50:56;;;;;;;27.70;12.65;;;;;;;2.32;86.79;100221.25;5022188;28;20456;-61
2021/11/10 10:53:47;;;;;;;26.25;13.15;;;;;;;2.58;88.56;100213.13;5023630;28;20033;-61
2021/11/10 10:56:22;;;;;;;20.88;11.95;;;;;;;2.72;87.12;100210.78;5019786;28;20491;-62
2021/11/10 10:58:57;;;;;;;18.00;11.45;;;;;;;2.59;86.50;100206.00;5016073;28;20454;-61
2021/11/10 11:01:27;;;;;;;21.45;11.43;;;;;;;2.23;87.78;100202.88;5018779;28;20049;-61
2021/11/10 11:04:03;;;;;;;16.90;11.15;;;;;;;2.42;88.08;100196.44;5016041;28;20044;-61